createdAt,value
2022-10-05T00:00:27.502Z,100.00
2022-10-05T00:02:54.271Z,100.00
2022-10-05T00:05:26.059Z,100.00
2022-10-05T00:07:52.808Z,100.00
2022-10-05T00:10:19.547Z,100.00
2022-10-05T00:12:46.594Z,100.00
2022-10-05T00:15:13.721Z,100.00
2022-10-05T00:17:40.686Z,100.00
2022-10-05T00:20:17.779Z,100.00
2022-10-05T00:22:44.255Z,100.00
2022-10-05T00:25:12.272Z,100.00
2022-10-05T00:27:39.008Z,100.00
2022-10-05T00:30:16.289Z,100.00
2022-10-05T00:32:42.818Z,100.00
2022-10-05T00:35:09.800Z,100.00
2022-10-05T00:37:36.320Z,100.00
2022-10-05T00:40:03.506Z,100.00
2022-10-05T00:42:34.668Z,100.00
2022-10-05T00:45:07.858Z,100.00
2022-10-05T00:47:46.458Z,100.00
2022-10-05T00:50:20.409Z,100.00
2022-10-05T00:53:10.110Z,100.00
2022-10-05T00:55:39.679Z,100.00
2022-10-05T00:58:24.955Z,100.00
2022-10-05T01:00:55.235Z,100.00
2022-10-05T01:03:21.856Z,100.00
2022-10-05T01:05:51.273Z,100.00
2022-10-05T01:08:27.052Z,100.00
2022-10-05T01:11:14.685Z,100.00
2022-10-05T01:13:46.937Z,100.00
2022-10-05T01:16:22.505Z,100.00
2022-10-05T01:19:07.810Z,100.00
2022-10-05T01:21:37.044Z,100.00
2022-10-05T01:24:14.868Z,100.00
2022-10-05T01:26:47.613Z,100.00
2022-10-05T01:29:17.294Z,100.00
2022-10-05T01:31:43.787Z,100.00
2022-10-05T01:34:12.535Z,100.00
2022-10-05T01:36:44.908Z,100.00
2022-10-05T01:39:25.735Z,100.00
2022-10-05T01:42:01.374Z,100.00
2022-10-05T01:44:37.802Z,100.00
2022-10-05T01:47:08.363Z,100.00
2022-10-05T01:49:38.739Z,100.00
2022-10-05T01:52:05.171Z,100.00
2022-10-05T01:54:40.386Z,100.00
2022-10-05T01:57:13.778Z,100.00
2022-10-05T01:59:40.173Z,100.00
2022-10-05T02:02:08.039Z,100.00
2022-10-05T02:05:03.920Z,100.00
2022-10-05T02:07:50.621Z,100.00
2022-10-05T02:10:22.204Z,100.00
2022-10-05T02:12:49.149Z,100.00
2022-10-05T02:15:17.538Z,100.00
2022-10-05T02:17:48.838Z,100.00
2022-10-05T02:20:17.409Z,100.00
2022-10-05T02:22:45.175Z,100.00
2022-10-05T02:25:15.916Z,100.00
2022-10-05T02:28:02.655Z,100.00
2022-10-05T02:30:29.549Z,100.00
2022-10-05T02:33:03.205Z,100.00
2022-10-05T02:35:29.698Z,100.00
2022-10-05T02:38:02.351Z,100.00
2022-10-05T02:40:32.571Z,100.00
2022-10-05T02:43:08.114Z,100.00
2022-10-05T02:45:37.678Z,100.00
2022-10-05T02:48:13.427Z,100.00
2022-10-05T02:50:48.662Z,100.00
2022-10-05T02:53:21.324Z,100.00
2022-10-05T02:55:56.982Z,100.00
2022-10-05T02:58:23.951Z,100.00
2022-10-05T03:00:51.028Z,100.00
2022-10-05T03:03:24.971Z,100.00
2022-10-05T03:05:53.571Z,100.00
2022-10-05T03:08:22.256Z,100.00
2022-10-05T03:11:07.671Z,100.00
2022-10-05T03:13:37.407Z,100.00
2022-10-05T03:16:10.012Z,100.00
2022-10-05T03:18:36.496Z,100.00
2022-10-05T03:21:02.864Z,100.00
2022-10-05T03:23:35.824Z,100.00
2022-10-05T03:26:06.107Z,100.00
2022-10-05T03:28:42.856Z,100.00
2022-10-05T03:31:15.141Z,100.00
2022-10-05T03:33:50.665Z,100.00
2022-10-05T03:36:17.105Z,100.00
2022-10-05T03:39:06.804Z,100.00
2022-10-05T03:42:05.662Z,100.00
2022-10-05T03:44:32.104Z,100.00
2022-10-05T03:47:01.729Z,100.00
2022-10-05T03:49:43.639Z,100.00
2022-10-05T03:52:12.818Z,100.00
2022-10-05T03:55:08.689Z,100.00
2022-10-05T03:57:35.864Z,100.00
2022-10-05T04:00:05.545Z,100.00
2022-10-05T04:02:41.292Z,100.00
2022-10-05T04:05:10.823Z,100.00
2022-10-05T04:07:39.890Z,100.00
2022-10-05T04:10:09.776Z,100.00
2022-10-05T04:12:37.300Z,100.00
2022-10-05T04:15:05.144Z,100.00
2022-10-05T04:17:33.079Z,100.00
2022-10-05T04:20:03.596Z,100.00
2022-10-05T04:22:43.235Z,100.00
2022-10-05T04:25:21.589Z,100.00
2022-10-05T04:27:50.959Z,100.00
2022-10-05T04:30:22.216Z,100.00
2022-10-05T04:32:52.658Z,100.00
2022-10-05T04:35:31.370Z,100.00
2022-10-05T04:38:07.074Z,100.00
2022-10-05T04:40:45.688Z,100.00
2022-10-05T04:43:19.035Z,100.00
2022-10-05T04:45:51.746Z,100.00
2022-10-05T04:48:33.551Z,100.00
2022-10-05T04:50:59.997Z,100.00
2022-10-05T04:53:31.568Z,100.00
2022-10-05T04:55:59.680Z,100.00
2022-10-05T04:58:32.266Z,100.00
2022-10-05T05:01:17.376Z,100.00
2022-10-05T05:03:56.087Z,100.00
2022-10-05T05:06:28.747Z,100.00
2022-10-05T05:09:01.393Z,100.00
2022-10-05T05:11:46.534Z,100.00
2022-10-05T05:14:16.764Z,100.00
2022-10-05T05:16:43.806Z,100.00
2022-10-05T05:19:31.663Z,100.00
2022-10-05T05:22:27.478Z,100.00
2022-10-05T05:24:56.740Z,100.00
2022-10-05T05:27:26.300Z,100.00
2022-10-05T05:30:16.002Z,100.00
2022-10-05T05:33:08.704Z,100.00
2022-10-05T05:35:35.112Z,100.00
2022-10-05T05:38:04.582Z,100.00
2022-10-05T05:40:33.343Z,100.00
2022-10-05T05:43:01.048Z,100.00
2022-10-05T05:45:27.449Z,100.00
2022-10-05T05:47:54.369Z,100.00
2022-10-05T05:50:20.808Z,100.00
2022-10-05T05:52:49.179Z,100.00
2022-10-05T05:55:30.535Z,100.00
2022-10-05T05:57:57.154Z,100.00
2022-10-05T06:00:25.013Z,100.00
2022-10-05T06:02:57.435Z,100.00
2022-10-05T06:05:25.070Z,100.00
2022-10-05T06:07:51.615Z,100.00
2022-10-05T06:10:38.322Z,100.00
2022-10-05T06:13:16.807Z,100.00
2022-10-05T06:15:48.227Z,100.00
2022-10-05T06:18:15.913Z,100.00
2022-10-05T06:21:01.077Z,100.00
2022-10-05T06:23:47.762Z,100.00
2022-10-05T06:26:24.183Z,100.00
2022-10-05T06:28:58.301Z,100.00
2022-10-05T06:31:30.992Z,100.00
2022-10-05T06:34:07.153Z,100.00
2022-10-05T06:36:42.711Z,100.00
2022-10-05T06:39:21.407Z,100.00
2022-10-05T06:41:47.835Z,100.00
2022-10-05T06:44:19.978Z,100.00
2022-10-05T06:47:00.920Z,100.00
2022-10-05T06:49:27.333Z,100.00
2022-10-05T06:51:58.503Z,100.00
2022-10-05T06:54:31.038Z,100.00
2022-10-05T06:57:01.295Z,100.00
2022-10-05T06:59:46.089Z,100.00
2022-10-05T07:02:15.900Z,100.00
2022-10-05T07:04:45.412Z,100.00
2022-10-05T07:07:18.535Z,100.00
2022-10-05T07:09:48.006Z,100.00
2022-10-05T07:12:41.415Z,100.00
2022-10-05T07:15:26.668Z,100.00
2022-10-05T07:18:02.663Z,100.00
2022-10-05T07:20:49.010Z,100.00
2022-10-05T07:23:22.237Z,100.00
2022-10-05T07:25:49.278Z,100.00
2022-10-05T07:28:21.891Z,100.00
2022-10-05T07:31:04.187Z,100.00
2022-10-05T07:33:33.656Z,100.00
2022-10-05T07:36:21.909Z,100.00
2022-10-05T07:38:48.334Z,100.00
2022-10-05T07:41:19.340Z,100.00
2022-10-05T07:44:01.488Z,100.00
2022-10-05T07:46:28.760Z,100.00
2022-10-05T07:49:15.412Z,100.00
2022-10-05T07:51:45.101Z,100.00
2022-10-05T07:54:25.391Z,100.00
2022-10-05T07:56:56.075Z,100.00
2022-10-05T07:59:25.425Z,100.00
2022-10-05T08:01:54.787Z,100.00
2022-10-05T08:04:25.401Z,100.00
2022-10-05T08:06:51.894Z,100.00
2022-10-05T08:09:18.299Z,100.00
2022-10-05T08:11:56.621Z,100.00
2022-10-05T08:14:43.014Z,100.00
2022-10-05T08:17:16.453Z,100.00
2022-10-05T08:19:55.559Z,100.00
2022-10-05T08:22:23.824Z,100.00
2022-10-05T08:25:10.728Z,100.00
2022-10-05T08:27:40.587Z,100.00
2022-10-05T08:30:10.653Z,100.00
2022-10-05T08:32:37.080Z,100.00
2022-10-05T08:35:22.238Z,100.00
2022-10-05T08:37:48.687Z,100.00
2022-10-05T08:40:15.158Z,100.00
2022-10-05T08:43:00.841Z,100.00
2022-10-05T08:45:46.135Z,100.00
2022-10-05T08:48:12.592Z,100.00
2022-10-05T08:50:57.785Z,100.00
2022-10-05T08:53:33.483Z,100.00
2022-10-05T08:56:20.839Z,100.00
2022-10-05T08:59:06.704Z,100.00
2022-10-05T09:01:36.291Z,100.00
2022-10-05T09:04:05.845Z,100.00
2022-10-05T09:06:38.530Z,100.00
2022-10-05T09:09:10.767Z,100.00
2022-10-05T09:12:00.573Z,100.00
2022-10-05T09:14:52.450Z,100.00
2022-10-05T09:17:28.407Z,100.00
2022-10-05T09:20:10.863Z,100.00
2022-10-05T09:23:09.930Z,100.00
2022-10-05T09:25:46.276Z,100.00
2022-10-05T09:28:25.180Z,100.00
2022-10-05T09:31:06.988Z,100.00
2022-10-05T09:33:39.662Z,100.00
2022-10-05T09:36:09.166Z,100.00
2022-10-05T09:38:45.581Z,100.00
2022-10-05T09:41:12.031Z,100.00
2022-10-05T09:43:48.890Z,100.00
2022-10-05T09:46:20.235Z,100.00
2022-10-05T09:48:56.541Z,100.00
2022-10-05T09:51:41.821Z,100.00
2022-10-05T09:54:08.310Z,100.00
2022-10-05T09:56:34.938Z,100.00
2022-10-05T09:59:07.759Z,100.00
2022-10-05T10:01:38.088Z,100.00
2022-10-05T10:04:20.386Z,100.00
2022-10-05T10:06:52.980Z,100.00
2022-10-05T10:09:19.445Z,100.00
2022-10-05T10:11:46.145Z,100.00
2022-10-05T10:14:18.821Z,100.00
2022-10-05T10:17:04.083Z,100.00
2022-10-05T10:19:41.678Z,100.00
2022-10-05T10:22:26.899Z,100.00
2022-10-05T10:25:02.330Z,100.00
2022-10-05T10:27:52.232Z,100.00
2022-10-05T10:30:27.419Z,100.00
2022-10-05T10:32:59.577Z,100.00
2022-10-05T10:35:35.971Z,100.00
2022-10-05T10:38:14.696Z,100.00
2022-10-05T10:40:59.881Z,100.00
2022-10-05T10:43:55.797Z,100.00
2022-10-05T10:46:41.002Z,100.00
2022-10-05T10:49:07.446Z,100.00
2022-10-05T10:51:47.479Z,100.00
2022-10-05T10:54:23.373Z,100.00
2022-10-05T10:57:19.347Z,100.00
2022-10-05T11:00:04.661Z,100.00
2022-10-05T11:02:50.036Z,100.00
2022-10-05T11:05:19.498Z,100.00
2022-10-05T11:07:45.902Z,100.00
2022-10-05T11:10:12.340Z,100.00
2022-10-05T11:12:58.562Z,100.00
2022-10-05T11:15:24.991Z,100.00
2022-10-05T11:17:51.423Z,100.00
2022-10-05T11:20:27.998Z,100.00
2022-10-05T11:23:06.625Z,100.00
2022-10-05T11:25:45.929Z,100.00
2022-10-05T11:28:31.210Z,100.00
2022-10-05T11:30:57.641Z,100.00
2022-10-05T11:33:24.415Z,100.00
2022-10-05T11:36:10.030Z,100.00
2022-10-05T11:38:55.137Z,100.00
2022-10-05T11:41:24.558Z,100.00
2022-10-05T11:44:09.630Z,100.00
2022-10-05T11:46:49.169Z,73.53
2022-10-05T11:49:19.512Z,61.31
2022-10-05T11:51:46.233Z,57.15
2022-10-05T11:54:17.496Z,48.18
2022-10-05T11:56:49.543Z,47.48
2022-10-05T11:59:34.690Z,41.29
2022-10-05T12:02:01.081Z,38.87
2022-10-05T12:04:30.507Z,36.94
2022-10-05T12:07:00.185Z,35.82
2022-10-05T12:09:33.430Z,33.25
2022-10-05T12:12:05.980Z,34.51
2022-10-05T12:14:33.602Z,35.09
2022-10-05T12:17:18.771Z,32.96
2022-10-05T12:19:46.107Z,32.16
2022-10-05T12:22:15.423Z,32.81
2022-10-05T12:24:44.618Z,35.78
2022-10-05T12:27:15.891Z,36.71
2022-10-05T12:29:42.317Z,44.09
2022-10-05T12:32:24.786Z,39.76
2022-10-05T12:35:30.061Z,37.20
2022-10-05T12:38:30.352Z,34.83
2022-10-05T12:41:09.380Z,32.70
2022-10-05T12:43:35.804Z,32.97
2022-10-05T12:46:17.810Z,30.18
2022-10-05T12:48:56.581Z,31.76
2022-10-05T12:51:27.386Z,30.35
2022-10-05T12:54:02.887Z,27.73
2022-10-05T12:56:31.802Z,27.77
2022-10-05T12:59:17.677Z,31.66
2022-10-05T13:02:02.429Z,32.33
2022-10-05T13:04:31.982Z,36.57
2022-10-05T13:07:04.511Z,40.10
2022-10-05T13:09:40.591Z,45.23
2022-10-05T13:12:19.081Z,48.82
2022-10-05T13:14:45.489Z,54.37
2022-10-05T13:17:30.818Z,57.59
2022-10-05T13:19:57.772Z,58.60
2022-10-05T13:22:24.184Z,57.98
2022-10-05T13:24:52.453Z,54.75
2022-10-05T13:27:32.147Z,52.47
2022-10-05T13:30:02.794Z,54.36
2022-10-05T13:32:34.501Z,56.76
2022-10-05T13:35:11.357Z,60.12
2022-10-05T13:37:41.203Z,62.92
2022-10-05T13:40:07.625Z,62.02
2022-10-05T13:42:37.719Z,56.55
2022-10-05T13:45:12.399Z,57.49
2022-10-05T13:47:41.933Z,57.34
2022-10-05T13:50:19.529Z,52.42
2022-10-05T13:52:45.887Z,54.21
2022-10-05T13:55:12.293Z,57.96
2022-10-05T13:57:45.026Z,61.20
2022-10-05T14:00:16.604Z,65.04
2022-10-05T14:02:43.755Z,71.90
2022-10-05T14:05:16.306Z,75.43
2022-10-05T14:08:06.041Z,79.10
2022-10-05T14:10:33.878Z,84.22
2022-10-05T14:13:01.144Z,84.71
2022-10-05T14:15:32.257Z,83.44
2022-10-05T14:17:58.796Z,80.97
2022-10-05T14:20:26.444Z,81.15
2022-10-05T14:22:54.903Z,81.91
2022-10-05T14:25:21.419Z,83.08
2022-10-05T14:27:49.139Z,87.85
2022-10-05T14:30:15.542Z,87.71
2022-10-05T14:32:51.407Z,89.50
2022-10-05T14:35:20.692Z,91.25
2022-10-05T14:37:50.389Z,94.07
2022-10-05T14:40:36.179Z,96.06
2022-10-05T14:43:17.306Z,100.00
2022-10-05T14:45:57.133Z,100.00
2022-10-05T14:48:24.179Z,100.00
2022-10-05T14:50:55.057Z,100.00
2022-10-05T14:53:22.704Z,100.00
2022-10-05T14:55:52.158Z,100.00
2022-10-05T14:58:37.273Z,100.00
2022-10-05T15:01:11.271Z,100.00
2022-10-05T15:03:41.047Z,100.00
2022-10-05T15:06:09.088Z,100.00
2022-10-05T15:08:48.518Z,100.00
2022-10-05T15:11:21.177Z,100.00
2022-10-05T15:13:48.610Z,100.00
2022-10-05T15:16:24.820Z,100.00
2022-10-05T15:18:57.383Z,100.00
2022-10-05T15:21:24.005Z,100.00
2022-10-05T15:23:57.651Z,100.00
2022-10-05T15:26:43.083Z,100.00
2022-10-05T15:29:09.434Z,100.00
2022-10-05T15:31:39.787Z,100.00
2022-10-05T15:34:11.441Z,100.00
2022-10-05T15:36:41.517Z,100.00
2022-10-05T15:39:14.420Z,100.00
2022-10-05T15:41:50.793Z,100.00
2022-10-05T15:44:25.999Z,100.00
2022-10-05T15:46:56.448Z,100.00
2022-10-05T15:49:43.539Z,100.00
2022-10-05T15:52:33.328Z,100.00
2022-10-05T15:55:19.453Z,100.00
2022-10-05T15:57:48.905Z,100.00
2022-10-05T16:00:19.410Z,100.00
2022-10-05T16:02:54.652Z,100.00
2022-10-05T16:05:47.455Z,100.00
2022-10-05T16:08:55.507Z,100.00
2022-10-05T16:11:40.703Z,100.00
2022-10-05T16:14:10.341Z,100.00
2022-10-05T16:16:42.126Z,100.00
2022-10-05T16:19:12.530Z,100.00
2022-10-05T16:21:45.895Z,100.00
2022-10-05T16:24:31.220Z,100.00
2022-10-05T16:26:58.739Z,100.00
2022-10-05T16:29:34.292Z,100.00
2022-10-05T16:32:03.048Z,100.00
2022-10-05T16:34:32.495Z,100.00
2022-10-05T16:36:59.168Z,100.00
2022-10-05T16:39:44.997Z,100.00
2022-10-05T16:42:11.939Z,100.00
2022-10-05T16:44:44.429Z,100.00
2022-10-05T16:47:29.485Z,100.00
2022-10-05T16:50:10.165Z,100.00
2022-10-05T16:52:37.301Z,100.00
2022-10-05T16:55:04.798Z,100.00
2022-10-05T16:57:31.581Z,100.00
2022-10-05T17:00:18.367Z,100.00
2022-10-05T17:02:57.024Z,100.00
2022-10-05T17:05:44.146Z,100.00
2022-10-05T17:08:26.764Z,100.00
2022-10-05T17:10:53.402Z,100.00
2022-10-05T17:13:37.406Z,100.00
2022-10-05T17:16:09.943Z,100.00
2022-10-05T17:18:55.271Z,100.00
2022-10-05T17:21:28.535Z,100.00
2022-10-05T17:23:57.442Z,100.00
2022-10-05T17:26:32.970Z,100.00
2022-10-05T17:29:00.516Z,100.00
2022-10-05T17:31:28.612Z,100.00
2022-10-05T17:34:23.123Z,100.00
2022-10-05T17:36:50.511Z,100.00
2022-10-05T17:39:18.436Z,100.00
2022-10-05T17:41:44.951Z,100.00
2022-10-05T17:44:13.295Z,100.00
2022-10-05T17:46:40.366Z,100.00
2022-10-05T17:49:18.789Z,100.00
2022-10-05T17:52:03.867Z,100.00
2022-10-05T17:54:49.809Z,100.00
2022-10-05T17:57:16.226Z,100.00
2022-10-05T17:59:44.587Z,100.00
2022-10-05T18:02:21.911Z,100.00
2022-10-05T18:05:16.227Z,100.00
2022-10-05T18:07:43.252Z,100.00
2022-10-05T18:10:09.645Z,100.00
2022-10-05T18:12:36.035Z,100.00
2022-10-05T18:15:05.661Z,100.00
2022-10-05T18:17:39.965Z,100.00
2022-10-05T18:20:26.990Z,100.00
2022-10-05T18:22:54.666Z,100.00
2022-10-05T18:25:21.099Z,100.00
2022-10-05T18:27:50.655Z,100.00
2022-10-05T18:30:21.346Z,100.00
2022-10-05T18:33:11.205Z,100.00
2022-10-05T18:35:44.137Z,100.00
2022-10-05T18:38:29.253Z,100.00
2022-10-05T18:40:59.226Z,100.00
2022-10-05T18:43:34.753Z,100.00
2022-10-05T18:46:15.031Z,100.00
2022-10-05T18:49:05.035Z,100.00
2022-10-05T18:51:31.455Z,100.00
2022-10-05T18:53:57.877Z,100.00
2022-10-05T18:56:24.413Z,100.00
2022-10-05T18:59:09.608Z,100.00
2022-10-05T19:01:36.085Z,100.00
2022-10-05T19:04:04.938Z,100.00
2022-10-05T19:06:44.544Z,100.00
2022-10-05T19:09:20.372Z,100.00
2022-10-05T19:11:51.186Z,100.00
2022-10-05T19:14:23.490Z,100.00
2022-10-05T19:16:49.884Z,100.00
2022-10-05T19:19:35.143Z,100.00
2022-10-05T19:22:04.548Z,100.00
2022-10-05T19:24:41.658Z,100.00
2022-10-05T19:27:14.213Z,100.00
2022-10-05T19:29:40.619Z,100.00
2022-10-05T19:32:16.591Z,100.00
2022-10-05T19:34:43.038Z,100.00
2022-10-05T19:37:31.012Z,100.00
2022-10-05T19:39:59.003Z,100.00
2022-10-05T19:42:36.619Z,100.00
2022-10-05T19:45:21.880Z,100.00
2022-10-05T19:47:54.455Z,100.00
2022-10-05T19:50:26.373Z,100.00
2022-10-05T19:53:02.468Z,100.00
2022-10-05T19:55:32.804Z,100.00
2022-10-05T19:58:02.166Z,100.00
2022-10-05T20:00:33.007Z,100.00
2022-10-05T20:03:08.473Z,100.00
2022-10-05T20:05:34.946Z,100.00
2022-10-05T20:08:01.384Z,100.00
2022-10-05T20:10:29.628Z,100.00
2022-10-05T20:12:59.819Z,100.00
2022-10-05T20:15:45.972Z,100.00
2022-10-05T20:18:50.095Z,100.00
2022-10-05T20:21:35.677Z,100.00
2022-10-05T20:24:08.198Z,100.00
2022-10-05T20:26:57.551Z,100.00
2022-10-05T20:29:23.964Z,100.00
2022-10-05T20:31:50.536Z,100.00
2022-10-05T20:34:18.062Z,100.00
2022-10-05T20:36:45.967Z,100.00
2022-10-05T20:39:15.610Z,100.00
2022-10-05T20:41:42.716Z,100.00
2022-10-05T20:44:09.424Z,100.00
2022-10-05T20:46:35.929Z,100.00
2022-10-05T20:49:02.758Z,100.00
2022-10-05T20:51:29.172Z,100.00
2022-10-05T20:53:56.122Z,100.00
2022-10-05T20:56:23.439Z,100.00
2022-10-05T20:58:50.243Z,100.00
2022-10-05T21:01:19.976Z,100.00
2022-10-05T21:03:46.718Z,100.00
2022-10-05T21:06:13.128Z,100.00
2022-10-05T21:08:39.590Z,100.00
2022-10-05T21:11:09.056Z,100.00
2022-10-05T21:13:36.032Z,100.00
2022-10-05T21:16:02.554Z,100.00
2022-10-05T21:18:29.542Z,100.00
2022-10-05T21:20:59.942Z,100.00
2022-10-05T21:23:29.441Z,100.00
2022-10-05T21:25:55.853Z,100.00
2022-10-05T21:28:22.486Z,100.00
2022-10-05T21:30:48.970Z,100.00
2022-10-05T21:33:15.371Z,100.00
2022-10-05T21:35:41.804Z,100.00
2022-10-05T21:38:08.204Z,100.00
2022-10-05T21:40:34.641Z,100.00
2022-10-05T21:43:01.112Z,100.00
2022-10-05T21:45:28.279Z,100.00
2022-10-05T21:47:54.763Z,100.00
2022-10-05T21:50:21.179Z,100.00
2022-10-05T21:52:47.601Z,100.00
2022-10-05T21:55:14.014Z,100.00
2022-10-05T21:57:41.251Z,100.00
2022-10-05T22:00:08.023Z,100.00
2022-10-05T22:02:34.527Z,100.00
2022-10-05T22:05:01.079Z,100.00
2022-10-05T22:07:29.021Z,100.00
2022-10-05T22:09:55.548Z,100.00
2022-10-05T22:12:22.171Z,100.00
2022-10-05T22:14:48.716Z,100.00
2022-10-05T22:17:17.439Z,100.00
2022-10-05T22:19:43.879Z,100.00
2022-10-05T22:22:12.021Z,100.00
2022-10-05T22:24:38.565Z,100.00
2022-10-05T22:27:05.009Z,100.00
2022-10-05T22:29:31.416Z,100.00
2022-10-05T22:31:57.970Z,100.00
2022-10-05T22:34:24.424Z,100.00
2022-10-05T22:36:50.856Z,100.00
2022-10-05T22:39:17.570Z,100.00
2022-10-05T22:41:44.026Z,100.00
2022-10-05T22:44:10.496Z,100.00
2022-10-05T22:46:36.939Z,100.00
2022-10-05T22:49:03.361Z,100.00
2022-10-05T22:51:29.779Z,100.00
2022-10-05T22:53:56.187Z,100.00
2022-10-05T22:56:22.662Z,100.00
2022-10-05T22:58:49.773Z,100.00
2022-10-05T23:01:17.197Z,100.00
2022-10-05T23:03:43.825Z,100.00
2022-10-05T23:06:14.736Z,100.00
2022-10-05T23:08:41.686Z,100.00
2022-10-05T23:11:09.745Z,100.00
2022-10-05T23:13:36.182Z,100.00
2022-10-05T23:16:15.772Z,100.00
2022-10-05T23:18:42.399Z,100.00
2022-10-05T23:21:09.136Z,100.00
2022-10-05T23:23:36.346Z,100.00
2022-10-05T23:26:03.042Z,100.00
2022-10-05T23:28:29.844Z,100.00
2022-10-05T23:31:00.497Z,100.00
2022-10-05T23:33:27.136Z,100.00
2022-10-05T23:36:00.685Z,100.00
2022-10-05T23:38:27.497Z,100.00
2022-10-05T23:40:54.156Z,100.00
2022-10-05T23:43:20.743Z,100.00
2022-10-05T23:45:47.205Z,100.00
2022-10-05T23:48:13.667Z,100.00
2022-10-05T23:50:40.283Z,100.00
2022-10-05T23:53:06.865Z,100.00
2022-10-05T23:55:33.324Z,100.00
2022-10-05T23:57:59.782Z,100.00
